Time,TemperatureF,DewpointF,PressureIn,WindDirection,WindDirectionDegrees,WindSpeedMPH,WindSpeedGustMPH,Humidity,HourlyPrecipIn,Conditions,Clouds,dailyrainin,SoftwareType,DateUTC
2013-02-23 00:04:00,18.3,16.9,29.85,North,360,1.9,2.3,94,0.00,RA,,0.00,WeatherDisplay:10.37,2013-02-23 06:04:00,
2013-02-23 00:09:00,18.0,16.6,29.85,North,360,0.0,0.0,94,0.00,RA,,0.00,WeatherDisplay:10.37,2013-02-23 06:09:00,
2013-02-23 00:14:00,17.8,16.4,29.85,North,360,0.0,0.0,94,0.00,OVC,,0.00,WeatherDisplay:10.37,2013-02-23 06:14:00,
2013-02-23 00:19:00,17.4,16.0,29.85,North,360,0.0,0.0,94,0.00,OVC,,0.00,WeatherDisplay:10.37,2013-02-23 06:19:00,
2013-02-23 00:24:00,16.9,15.5,29.85,North,360,0.0,0.0,94,0.00,OVC,,0.00,WeatherDisplay:10.37,2013-02-23 06:24:00,
2013-02-23 00:30:00,16.7,15.0,29.85,North,360,0.0,0.0,93,0.00,OVC,,0.00,WeatherDisplay:10.37,2013-02-23 06:30:00,
2013-02-23 00:35:00,16.3,14.6,29.84,North,360,0.0,0.0,93,0.00,OVC,,0.00,WeatherDisplay:10.37,2013-02-23 06:35:00,
2013-02-23 00:40:00,16.0,14.3,29.84,North,360,0.0,0.0,93,0.00,OVC,,0.00,WeatherDisplay:10.37,2013-02-23 06:40:00,
2013-02-23 00:45:00,16.3,14.4,29.84,North,360,0.0,0.0,92,0.00,OVC,,0.00,WeatherDisplay:10.37,2013-02-23 06:45:00,
2013-02-23 00:50:00,16.3,14.6,29.84,North,360,0.0,0.0,93,0.00,OVC,,0.00,WeatherDisplay:10.37,2013-02-23 06:50:00,
2013-02-23 00:55:00,16.5,14.6,29.84,North,360,1.4,1.4,92,0.00,OVC,,0.00,WeatherDisplay:10.37,2013-02-23 06:55:00,
2013-02-23 01:00:00,17.1,15.4,29.85,North,360,1.6,1.7,93,0.00,OVC,,0.00,WeatherDisplay:10.37,2013-02-23 07:00:00,
2013-02-23 01:05:00,17.1,15.4,29.85,North,360,1.2,1.2,93,0.00,OVC,,0.00,WeatherDisplay:10.37,2013-02-23 07:05:00,
2013-02-23 01:10:00,17.1,15.4,29.85,North,360,0.4,1.1,93,0.00,OVC,,0.00,WeatherDisplay:10.37,2013-02-23 07:10:00,
2013-02-23 01:15:00,17.1,15.4,29.85,North,360,1.4,1.4,93,0.00,BKN,,0.00,WeatherDisplay:10.37,2013-02-23 07:15:00,
2013-02-23 01:21:00,16.7,15.0,29.84,North,360,0.0,0.0,93,0.00,BKN,,0.00,WeatherDisplay:10.37,2013-02-23 07:21:00,
2013-02-23 01:26:00,17.4,15.7,29.84,North,360,1.5,2.3,93,0.00,BKN,,0.00,WeatherDisplay:10.37,2013-02-23 07:26:00,
2013-02-23 01:31:00,17.1,15.4,29.84,North,360,0.0,1.1,93,0.00,BKN,,0.00,WeatherDisplay:10.37,2013-02-23 07:31:00,
2013-02-23 01:36:00,16.9,15.2,29.84,North,360,0.0,0.0,93,0.00,BKN,,0.00,WeatherDisplay:10.37,2013-02-23 07:36:00,
2013-02-23 01:41:00,16.9,15.2,29.84,North,360,0.0,0.0,93,0.00,BKN,,0.00,WeatherDisplay:10.37,2013-02-23 07:41:00,
2013-02-23 01:46:00,16.9,15.0,29.84,North,360,0.0,0.0,92,0.00,BKN,,0.00,WeatherDisplay:10.37,2013-02-23 07:46:00,
2013-02-23 01:51:00,17.6,15.7,29.84,North,360,0.0,0.0,92,0.00,BKN,,0.00,WeatherDisplay:10.37,2013-02-23 07:51:00,
2013-02-23 01:56:00,18.0,16.1,29.84,North,360,0.0,1.1,92,0.00,BKN,,0.00,WeatherDisplay:10.37,2013-02-23 07:56:00,
2013-02-23 02:01:00,18.3,16.4,29.84,North,360,1.4,1.4,92,0.00,BKN,,0.00,WeatherDisplay:10.37,2013-02-23 08:01:00,
2013-02-23 02:06:00,18.9,17.0,29.84,North,360,1.3,2.3,92,0.00,BKN,,0.00,WeatherDisplay:10.37,2013-02-23 08:06:00,
2013-02-23 02:12:00,19.2,17.3,29.84,North,360,1.3,2.2,92,0.00,BKN,,0.00,WeatherDisplay:10.37,2013-02-23 08:12:00,
2013-02-23 02:17:00,19.2,17.3,29.84,North,360,0.0,0.0,92,0.00,BKN,,0.00,WeatherDisplay:10.37,2013-02-23 08:17:00,
2013-02-23 02:22:00,19.6,17.7,29.84,North,360,0.1,1.7,92,0.00,BKN,,0.00,WeatherDisplay:10.37,2013-02-23 08:22:00,
2013-02-23 02:27:00,19.8,17.9,29.84,North,360,0.9,3.5,92,0.00,BKN,,0.00,WeatherDisplay:10.37,2013-02-23 08:27:00,
2013-02-23 02:32:00,19.4,17.5,29.84,North,360,0.0,0.0,92,0.00,BKN,,0.00,WeatherDisplay:10.37,2013-02-23 08:32:00,
2013-02-23 02:37:00,19.4,17.5,29.83,North,360,0.0,0.0,92,0.00,BKN,,0.00,WeatherDisplay:10.37,2013-02-23 08:37:00,
2013-02-23 02:42:00,19.6,17.7,29.83,North,360,0.0,0.0,92,0.00,FEW,,0.00,WeatherDisplay:10.37,2013-02-23 08:42:00,
2013-02-23 02:47:00,19.8,17.9,29.83,North,360,0.0,0.0,92,0.00,FEW,,0.00,WeatherDisplay:10.37,2013-02-23 08:47:00,
2013-02-23 02:52:00,20.1,18.1,29.83,North,360,1.7,2.2,92,0.00,FEW,,0.00,WeatherDisplay:10.37,2013-02-23 08:52:00,
2013-02-23 02:57:00,20.1,18.1,29.83,North,360,1.2,1.2,92,0.00,FEW,,0.00,WeatherDisplay:10.37,2013-02-23 08:57:00,
2013-02-23 03:03:00,20.5,18.5,29.83,North,360,2.4,2.4,92,0.00,OVC,,0.00,WeatherDisplay:10.37,2013-02-23 09:03:00,
2013-02-23 03:08:00,20.7,18.7,29.83,North,360,1.7,1.7,92,0.00,OVC,,0.00,WeatherDisplay:10.37,2013-02-23 09:08:00,
2013-02-23 03:13:00,20.8,18.6,29.83,North,360,2.5,3.5,91,0.00,OVC,,0.00,WeatherDisplay:10.37,2013-02-23 09:13:00,
2013-02-23 03:18:00,20.8,18.6,29.83,North,360,2.2,2.7,91,0.00,OVC,,0.00,WeatherDisplay:10.37,2013-02-23 09:18:00,
2013-02-23 03:23:00,21.0,18.8,29.83,North,360,2.6,3.5,91,0.00,OVC,,0.00,WeatherDisplay:10.37,2013-02-23 09:23:00,
2013-02-23 03:28:00,21.0,18.8,29.83,North,360,2.8,3.5,91,0.00,OVC,,0.00,WeatherDisplay:10.37,2013-02-23 09:28:00,
2013-02-23 03:33:00,21.0,18.8,29.83,North,360,2.0,3.5,91,0.00,OVC,,0.00,WeatherDisplay:10.37,2013-02-23 09:33:00,
2013-02-23 03:39:00,21.0,18.8,29.83,North,360,2.6,4.2,91,0.00,OVC,,0.00,WeatherDisplay:10.37,2013-02-23 09:39:00,
2013-02-23 03:44:00,21.2,19.0,29.83,North,360,2.5,3.5,91,0.00,OVC,,0.00,WeatherDisplay:10.37,2013-02-23 09:44:00,
2013-02-23 03:49:00,21.2,19.0,29.83,North,360,2.3,3.5,91,0.00,OVC,,0.00,WeatherDisplay:10.37,2013-02-23 09:49:00,
2013-02-23 03:54:00,21.2,19.0,29.83,North,360,3.2,3.7,91,0.00,OVC,,0.00,WeatherDisplay:10.37,2013-02-23 09:54:00,
2013-02-23 03:59:00,21.2,19.0,29.83,North,360,3.5,4.6,91,0.00,OVC,,0.00,WeatherDisplay:10.37,2013-02-23 09:59:00,
2013-02-23 04:04:00,21.2,19.0,29.83,West,270,3.1,5.8,91,0.00,OVC,,0.00,WeatherDisplay:10.37,2013-02-23 10:04:00,
2013-02-23 04:09:00,21.2,19.0,29.83,NW,315,2.6,3.5,91,0.00,OVC,,0.00,WeatherDisplay:10.37,2013-02-23 10:09:00,
2013-02-23 04:14:00,21.2,19.0,29.83,West,270,2.8,4.2,91,0.00,OVC,,0.00,WeatherDisplay:10.37,2013-02-23 10:14:00,
2013-02-23 04:19:00,21.2,19.0,29.83,West,270,2.9,3.5,91,0.00,OVC,,0.00,WeatherDisplay:10.37,2013-02-23 10:19:00,
2013-02-23 04:24:00,21.2,19.0,29.83,WSW,248,2.9,4.6,91,0.00,OVC,,0.00,WeatherDisplay:10.37,2013-02-23 10:24:00,
2013-02-23 04:30:00,21.2,19.0,29.83,West,270,4.5,5.3,91,0.00,OVC,,0.00,WeatherDisplay:10.37,2013-02-23 10:30:00,
2013-02-23 04:35:00,21.0,18.8,29.83,NNW,338,4.2,4.6,91,0.00,OVC,,0.00,WeatherDisplay:10.37,2013-02-23 10:35:00,
2013-02-23 04:40:00,21.0,18.5,29.83,NNW,338,1.9,3.5,90,0.00,OVC,,0.00,WeatherDisplay:10.37,2013-02-23 10:40:00,
2013-02-23 04:45:00,21.0,18.5,29.83,WSW,248,2.3,3.5,90,0.00,OVC,,0.00,WeatherDisplay:10.37,2013-02-23 10:45:00,
2013-02-23 04:50:00,21.0,18.5,29.83,West,270,3.7,4.6,90,0.00,OVC,,0.00,WeatherDisplay:10.37,2013-02-23 10:50:00,
2013-02-23 04:55:00,21.0,18.5,29.83,WSW,248,3.0,4.6,90,0.00,OVC,,0.00,WeatherDisplay:10.37,2013-02-23 10:55:00,
2013-02-23 05:00:00,21.0,18.3,29.83,NNW,338,3.6,4.6,89,0.00,OVC,,0.00,WeatherDisplay:10.37,2013-02-23 11:00:00,
2013-02-23 05:05:00,20.8,18.1,29.83,West,270,4.7,5.8,89,0.00,OVC,,0.00,WeatherDisplay:10.37,2013-02-23 11:05:00,
2013-02-23 05:10:00,20.8,18.1,29.83,West,270,3.9,4.7,89,0.00,OVC,,0.00,WeatherDisplay:10.37,2013-02-23 11:10:00,
2013-02-23 05:16:00,20.8,18.1,29.83,SW,225,2.7,5.8,89,0.00,OVC,,0.00,WeatherDisplay:10.37,2013-02-23 11:16:00,
2013-02-23 05:21:00,20.7,18.0,29.83,West,270,2.5,3.5,89,0.00,OVC,,0.00,WeatherDisplay:10.37,2013-02-23 11:21:00,
2013-02-23 05:26:00,20.7,18.0,29.83,SSW,202,3.1,3.7,89,0.00,OVC,,0.00,WeatherDisplay:10.37,2013-02-23 11:26:00,
2013-02-23 05:31:00,20.5,17.8,29.83,WSW,248,3.7,4.7,89,0.00,OVC,,0.00,WeatherDisplay:10.37,2013-02-23 11:31:00,
2013-02-23 05:36:00,20.5,17.8,29.83,NW,315,2.4,2.7,89,0.00,OVC,,0.00,WeatherDisplay:10.37,2013-02-23 11:36:00,
2013-02-23 05:41:00,20.5,17.8,29.83,SW,225,2.3,2.3,89,0.00,OVC,,0.00,WeatherDisplay:10.37,2013-02-23 11:41:00,
2013-02-23 05:46:00,20.3,17.6,29.83,NW,315,3.5,4.6,89,0.00,OVC,,0.00,WeatherDisplay:10.37,2013-02-23 11:46:00,
2013-02-23 05:51:00,20.3,17.6,29.83,SSW,202,2.4,2.7,89,0.00,OVC,,0.00,WeatherDisplay:10.37,2013-02-23 11:51:00,
2013-02-23 05:56:00,20.3,17.6,29.83,West,270,2.6,4.2,89,0.00,OVC,,0.00,WeatherDisplay:10.37,2013-02-23 11:56:00,
2013-02-23 06:01:00,20.3,17.6,29.83,SW,225,2.9,3.5,89,0.00,OVC,,0.00,WeatherDisplay:10.37,2013-02-23 12:01:00,
2013-02-23 06:06:00,20.3,17.6,29.83,SW,225,1.9,2.3,89,0.00,OVC,,0.00,WeatherDisplay:10.37,2013-02-23 12:06:00,
2013-02-23 06:12:00,20.3,17.6,29.84,NW,315,1.8,2.3,89,0.00,OVC,,0.00,WeatherDisplay:10.37,2013-02-23 12:12:00,
2013-02-23 06:17:00,20.3,17.6,29.84,WSW,248,1.9,2.3,89,0.00,OVC,,0.00,WeatherDisplay:10.37,2013-02-23 12:17:00,
2013-02-23 06:22:00,20.3,17.6,29.84,West,270,1.8,2.3,89,0.00,OVC,,0.00,WeatherDisplay:10.37,2013-02-23 12:22:00,
2013-02-23 06:27:00,20.3,17.6,29.84,West,270,2.9,3.5,89,0.00,OVC,,0.00,WeatherDisplay:10.37,2013-02-23 12:27:00,
2013-02-23 06:32:00,20.3,17.6,29.84,WSW,248,2.4,3.5,89,0.00,OVC,,0.00,WeatherDisplay:10.37,2013-02-23 12:32:00,
2013-02-23 06:37:00,20.3,17.6,29.84,NW,315,2.8,3.5,89,0.00,OVC,,0.00,WeatherDisplay:10.37,2013-02-23 12:37:00,
2013-02-23 06:42:00,20.3,17.6,29.84,West,270,2.4,2.7,89,0.00,OVC,,0.00,WeatherDisplay:10.37,2013-02-23 12:42:00,
2013-02-23 06:47:00,20.3,17.6,29.84,West,270,2.7,3.5,89,0.00,OVC,,0.00,WeatherDisplay:10.37,2013-02-23 12:47:00,
2013-02-23 06:52:00,20.3,17.6,29.84,NW,315,2.1,2.3,89,0.00,OVC,,0.00,WeatherDisplay:10.37,2013-02-23 12:52:00,
2013-02-23 06:57:00,20.3,17.6,29.84,WSW,248,3.1,3.5,89,0.00,OVC,,0.00,WeatherDisplay:10.37,2013-02-23 12:57:00,
2013-02-23 07:03:00,20.3,17.6,29.84,West,270,2.3,2.7,89,0.00,OVC,,0.00,WeatherDisplay:10.37,2013-02-23 13:03:00,
2013-02-23 07:08:00,20.5,17.8,29.84,West,270,3.6,4.6,89,0.00,OVC,,0.00,WeatherDisplay:10.37,2013-02-23 13:08:00,
2013-02-23 07:13:00,20.5,17.8,29.84,NW,315,2.2,2.3,89,0.00,OVC,,0.00,WeatherDisplay:10.37,2013-02-23 13:13:00,
2013-02-23 07:18:00,20.7,18.0,29.84,NW,315,2.9,3.5,89,0.00,OVC,,0.00,WeatherDisplay:10.37,2013-02-23 13:18:00,
2013-02-23 07:23:00,20.7,18.0,29.84,NW,315,2.7,3.5,89,0.00,OVC,,0.00,WeatherDisplay:10.37,2013-02-23 13:23:00,
2013-02-23 07:28:00,20.7,18.0,29.84,WNW,292,1.8,2.3,89,0.00,OVC,,0.00,WeatherDisplay:10.37,2013-02-23 13:28:00,
2013-02-23 07:33:00,20.7,18.0,29.84,NW,315,0.6,1.7,89,0.00,OVC,,0.00,WeatherDisplay:10.37,2013-02-23 13:33:00,
2013-02-23 07:38:00,20.8,17.8,29.84,NW,315,1.6,2.3,88,0.00,OVC,,0.00,WeatherDisplay:10.37,2013-02-23 13:38:00,
2013-02-23 07:43:00,20.8,17.8,29.84,NW,315,2.6,3.5,88,0.00,OVC,,0.00,WeatherDisplay:10.37,2013-02-23 13:43:00,
2013-02-23 07:48:00,20.8,17.8,29.84,WSW,248,3.0,3.5,88,0.00,OVC,,0.00,WeatherDisplay:10.37,2013-02-23 13:48:00,
2013-02-23 07:54:00,20.8,17.8,29.84,SW,225,2.5,3.2,88,0.00,OVC,,0.00,WeatherDisplay:10.37,2013-02-23 13:54:00,
2013-02-23 07:59:00,21.0,18.0,29.84,NW,315,0.0,0.0,88,0.00,OVC,,0.00,WeatherDisplay:10.37,2013-02-23 13:59:00,
2013-02-23 08:04:00,21.4,18.1,29.84,NW,315,0.0,0.0,87,0.00,OVC,,0.00,WeatherDisplay:10.37,2013-02-23 14:04:00,
2013-02-23 08:09:00,21.9,18.4,29.84,NW,315,0.9,3.5,86,0.00,OVC,,0.00,WeatherDisplay:10.37,2013-02-23 14:09:00,
2013-02-23 08:14:00,22.1,18.6,29.84,West,270,0.0,0.0,86,0.00,OVC,,0.00,WeatherDisplay:10.37,2013-02-23 14:14:00,
2013-02-23 08:19:00,22.3,18.7,29.84,SW,225,2.0,2.3,86,0.00,OVC,,0.00,WeatherDisplay:10.37,2013-02-23 14:19:00,
2013-02-23 08:24:00,22.5,18.9,29.85,West,270,2.7,3.5,86,0.00,OVC,,0.00,WeatherDisplay:10.37,2013-02-23 14:24:00,
2013-02-23 08:29:00,22.6,19.0,29.85,WSW,248,3.0,3.5,86,0.00,OVC,,0.00,WeatherDisplay:10.37,2013-02-23 14:29:00,
2013-02-23 08:34:00,22.6,18.8,29.84,NW,315,3.4,4.2,85,0.00,OVC,,0.00,WeatherDisplay:10.37,2013-02-23 14:34:00,
2013-02-23 08:39:00,23.0,19.2,29.84,NW,315,0.3,1.7,85,0.00,OVC,,0.00,WeatherDisplay:10.37,2013-02-23 14:39:00,
2013-02-23 08:45:00,23.0,19.2,29.84,WSW,248,2.8,5.8,85,0.00,OVC,,0.00,WeatherDisplay:10.37,2013-02-23 14:45:00,
2013-02-23 08:50:00,23.2,19.1,29.85,NW,315,1.8,3.5,84,0.00,OVC,,0.00,WeatherDisplay:10.37,2013-02-23 14:50:00,
2013-02-23 08:55:00,23.7,19.3,29.85,WSW,248,0.0,0.0,83,0.00,OVC,,0.00,WeatherDisplay:10.37,2013-02-23 14:55:00,
2013-02-23 09:00:00,24.1,19.7,29.85,WSW,248,2.8,3.5,83,0.00,OVC,,0.00,WeatherDisplay:10.37,2013-02-23 15:00:00,
2013-02-23 09:05:00,24.1,19.4,29.85,West,270,3.5,3.5,82,0.00,OVC,,0.00,WeatherDisplay:10.37,2013-02-23 15:05:00,
2013-02-23 09:10:00,24.4,19.7,29.85,West,270,2.8,3.7,82,0.00,OVC,,0.00,WeatherDisplay:10.37,2013-02-23 15:10:00,
2013-02-23 09:15:00,24.6,19.6,29.85,WNW,292,2.5,3.5,81,0.00,OVC,,0.00,WeatherDisplay:10.37,2013-02-23 15:15:00,
2013-02-23 09:20:00,26.1,20.5,29.85,NW,315,0.1,2.3,79,0.00,OVC,,0.00,WeatherDisplay:10.37,2013-02-23 15:20:00,
2013-02-23 09:25:00,26.1,20.2,29.85,NW,315,2.6,3.5,78,0.00,OVC,,0.00,WeatherDisplay:10.37,2013-02-23 15:25:00,
2013-02-23 09:30:00,26.1,20.2,29.85,WSW,248,2.0,3.5,78,0.00,OVC,,0.00,WeatherDisplay:10.37,2013-02-23 15:30:00,
2013-02-23 09:36:00,26.8,20.6,29.85,NNW,338,3.0,3.5,77,0.00,OVC,,0.00,WeatherDisplay:10.37,2013-02-23 15:36:00,
2013-02-23 09:41:00,26.4,20.2,29.85,NW,315,3.1,4.6,77,0.00,OVC,,0.00,WeatherDisplay:10.37,2013-02-23 15:41:00,
2013-02-23 09:46:00,27.3,20.7,29.86,NNW,338,2.4,3.5,76,0.00,OVC,,0.00,WeatherDisplay:10.37,2013-02-23 15:46:00,
2013-02-23 09:51:00,27.7,21.1,29.86,West,270,2.7,3.7,76,0.00,OVC,,0.00,WeatherDisplay:10.37,2013-02-23 15:51:00,
2013-02-23 09:56:00,27.7,21.1,29.86,NW,315,2.5,3.5,76,0.00,OVC,,0.00,WeatherDisplay:10.37,2013-02-23 15:56:00,
2013-02-23 10:01:00,28.4,21.2,29.85,NW,315,3.7,5.8,74,0.00,OVC,,0.00,WeatherDisplay:10.37,2013-02-23 16:01:00,
2013-02-23 10:06:00,28.9,21.3,29.85,NNW,338,0.5,2.2,73,0.00,OVC,,0.00,WeatherDisplay:10.37,2013-02-23 16:06:00,
2013-02-23 10:11:00,29.3,21.4,29.86,NW,315,3.3,4.2,72,0.00,OVC,,0.00,WeatherDisplay:10.37,2013-02-23 16:11:00,
2013-02-23 10:16:00,28.6,21.0,29.86,NW,315,3.4,3.7,73,0.00,OVC,,0.00,WeatherDisplay:10.37,2013-02-23 16:16:00,
2013-02-23 10:22:00,28.4,20.8,29.85,West,270,3.9,4.6,73,0.00,OVC,,0.00,WeatherDisplay:10.37,2013-02-23 16:22:00,
2013-02-23 10:27:00,30.0,22.1,29.85,NNW,338,3.2,3.5,72,0.00,OVC,,0.00,WeatherDisplay:10.37,2013-02-23 16:27:00,
2013-02-23 10:32:00,30.0,21.4,29.85,NNW,338,2.5,2.7,70,0.00,BKN,,0.00,WeatherDisplay:10.37,2013-02-23 16:32:00,
2013-02-23 10:37:00,29.8,21.5,29.86,WNW,292,3.6,4.6,71,0.00,BKN,,0.00,WeatherDisplay:10.37,2013-02-23 16:37:00,
2013-02-23 10:42:00,30.7,22.1,29.86,NNW,338,3.0,4.6,70,0.00,BKN,,0.00,WeatherDisplay:10.37,2013-02-23 16:42:00,
2013-02-23 10:47:00,31.3,22.3,29.86,NNW,338,2.8,3.5,69,0.00,BKN,,0.00,WeatherDisplay:10.37,2013-02-23 16:47:00,
2013-02-23 10:52:00,31.8,22.4,29.86,North,360,2.5,3.5,68,0.00,BKN,,0.00,WeatherDisplay:10.37,2013-02-23 16:52:00,
2013-02-23 10:57:00,31.6,22.2,29.86,North,360,2.8,3.5,68,0.00,BKN,,0.00,WeatherDisplay:10.37,2013-02-23 16:57:00,
2013-02-23 11:02:00,33.3,23.2,29.86,North,360,2.6,3.5,66,0.00,BKN,,0.00,WeatherDisplay:10.37,2013-02-23 17:02:00,
2013-02-23 11:07:00,33.4,22.5,29.86,WNW,292,3.5,4.6,64,0.00,BKN,,0.00,WeatherDisplay:10.37,2013-02-23 17:07:00,
2013-02-23 11:13:00,34.2,23.3,29.86,West,270,2.8,2.8,64,0.00,BKN,,0.00,WeatherDisplay:10.37,2013-02-23 17:13:00,
2013-02-23 11:18:00,34.0,22.7,29.86,West,270,2.7,2.7,63,0.00,BKN,,0.00,WeatherDisplay:10.37,2013-02-23 17:18:00,
2013-02-23 11:23:00,34.0,22.7,29.86,West,270,2.7,2.7,63,0.00,BKN,,0.00,WeatherDisplay:10.37,2013-02-23 17:23:00,
2013-02-23 11:28:00,33.3,22.1,29.86,West,270,3.2,4.6,63,0.00,BKN,,0.00,WeatherDisplay:10.37,2013-02-23 17:28:00,
2013-02-23 11:33:00,33.6,22.7,29.86,North,360,2.2,4.6,64,0.00,BKN,,0.00,WeatherDisplay:10.37,2013-02-23 17:33:00,
2013-02-23 11:38:00,36.7,24.5,29.86,North,360,1.7,2.7,61,0.00,BKN,,0.00,WeatherDisplay:10.37,2013-02-23 17:38:00,
2013-02-23 11:43:00,37.2,25.4,29.86,WSW,248,3.7,5.8,62,0.00,BKN,,0.00,WeatherDisplay:10.37,2013-02-23 17:43:00,
2013-02-23 11:48:00,36.3,25.7,29.85,NNW,338,2.5,4.6,65,0.00,BKN,,0.00,WeatherDisplay:10.37,2013-02-23 17:48:00,
2013-02-23 11:53:00,39.0,25.9,29.85,North,360,3.3,3.7,59,0.00,BKN,,0.00,WeatherDisplay:10.37,2013-02-23 17:53:00,
2013-02-23 11:58:00,39.4,26.7,29.86,NE,45,1.3,3.5,60,0.00,BKN,,0.00,WeatherDisplay:10.37,2013-02-23 17:58:00,
2013-02-23 12:04:00,39.0,26.3,29.86,North,360,1.1,2.3,60,0.00,OVC,,0.00,WeatherDisplay:10.37,2013-02-23 18:04:00,
2013-02-23 12:09:00,39.0,26.3,29.86,West,270,3.0,3.7,60,0.00,OVC,,0.00,WeatherDisplay:10.37,2013-02-23 18:09:00,
2013-02-23 12:14:00,38.7,26.0,29.86,North,360,2.6,2.7,60,0.00,OVC,,0.00,WeatherDisplay:10.37,2013-02-23 18:14:00,
2013-02-23 12:19:00,34.2,24.4,29.86,NNW,338,2.7,3.5,67,0.00,OVC,,0.00,WeatherDisplay:10.37,2013-02-23 18:19:00,
2013-02-23 12:24:00,33.6,24.5,29.85,SSW,202,1.5,2.7,69,0.01,RA,,0.01,WeatherDisplay:10.37,2013-02-23 18:24:00,
2013-02-23 12:29:00,33.3,24.2,29.85,North,360,2.0,3.5,69,0.01,RA,,0.01,WeatherDisplay:10.37,2013-02-23 18:29:00,
2013-02-23 12:34:00,32.2,23.5,29.85,NNE,22,2.8,4.2,70,0.01,OVC,,0.01,WeatherDisplay:10.37,2013-02-23 18:34:00,
2013-02-23 12:39:00,32.9,23.8,29.85,North,360,0.0,0.0,69,0.01,OVC,,0.02,WeatherDisplay:10.37,2013-02-23 18:39:00,
2013-02-23 12:44:00,31.6,22.9,29.85,North,360,0.5,2.3,70,0.02,RA,,0.02,WeatherDisplay:10.37,2013-02-23 18:44:00,
2013-02-23 12:49:00,32.2,23.5,29.84,WNW,292,0.0,3.5,70,0.02,RA,,0.02,WeatherDisplay:10.37,2013-02-23 18:49:00,
2013-02-23 12:55:00,32.7,23.6,29.84,NNE,22,1.6,4.6,69,0.02,OVC,,0.02,WeatherDisplay:10.37,2013-02-23 18:55:00,
2013-02-23 13:00:00,31.3,23.0,29.84,North,360,0.0,0.0,71,0.02,OVC,,0.02,WeatherDisplay:10.37,2013-02-23 19:00:00,
2013-02-23 13:05:00,32.0,23.3,29.84,North,360,0.0,0.0,70,0.02,BKN,,0.02,WeatherDisplay:10.37,2013-02-23 19:05:00,
2013-02-23 13:10:00,31.6,22.9,29.83,NNE,22,2.9,4.6,70,0.02,BKN,,0.02,WeatherDisplay:10.37,2013-02-23 19:10:00,
2013-02-23 13:15:00,31.1,22.5,29.83,NNE,22,3.0,3.5,70,0.02,BKN,,0.02,WeatherDisplay:10.37,2013-02-23 19:15:00,
2013-02-23 13:20:00,31.1,22.5,29.83,NNE,22,3.2,3.5,70,0.02,BKN,,0.02,WeatherDisplay:10.37,2013-02-23 19:20:00,
2013-02-23 13:25:00,31.1,22.5,29.83,NNE,22,3.2,3.5,70,0.01,BKN,,0.02,WeatherDisplay:10.37,2013-02-23 19:25:00,
2013-02-23 13:30:00,31.1,22.5,29.83,NNE,22,3.2,3.5,70,0.01,BKN,,0.02,WeatherDisplay:10.37,2013-02-23 19:30:00,
2013-02-23 13:35:00,31.1,22.5,29.83,NNE,22,3.2,3.5,70,0.01,BKN,,0.02,WeatherDisplay:10.37,2013-02-23 19:35:00,
2013-02-23 13:40:00,33.3,23.9,29.84,WNW,292,2.8,4.6,68,0.01,RA,,0.03,WeatherDisplay:10.37,2013-02-23 19:40:00,
2013-02-23 13:46:00,33.3,24.2,29.84,West,270,0.0,0.0,69,0.02,RA,,0.04,WeatherDisplay:10.37,2013-02-23 19:46:00,
2013-02-23 13:51:00,36.0,25.4,29.84,West,270,2.7,2.7,65,0.02,RA,,0.04,WeatherDisplay:10.37,2013-02-23 19:51:00,
2013-02-23 13:56:00,34.3,24.5,29.84,WSW,248,3.3,4.7,67,0.02,BKN,,0.04,WeatherDisplay:10.37,2013-02-23 19:56:00,
2013-02-23 14:01:00,34.5,25.0,29.84,West,270,3.8,4.6,68,0.02,BKN,,0.04,WeatherDisplay:10.37,2013-02-23 20:01:00,
2013-02-23 14:06:00,33.6,24.9,29.84,NNW,338,2.9,3.5,70,0.02,SCT,,0.04,WeatherDisplay:10.37,2013-02-23 20:06:00,
2013-02-23 14:11:00,32.7,24.3,29.84,SW,225,0.2,2.2,71,0.03,RA,,0.05,WeatherDisplay:10.37,2013-02-23 20:11:00,
2013-02-23 14:16:00,34.0,24.9,29.84,West,270,3.2,3.5,69,0.03,RA,,0.05,WeatherDisplay:10.37,2013-02-23 20:16:00,
2013-02-23 14:21:00,34.0,24.9,29.84,West,270,3.2,3.5,69,0.03,SCT,,0.05,WeatherDisplay:10.37,2013-02-23 20:21:00,
2013-02-23 14:26:00,34.2,25.1,29.84,SSW,202,2.9,3.5,69,0.03,SCT,,0.05,WeatherDisplay:10.37,2013-02-23 20:26:00,
2013-02-23 14:31:00,33.8,25.0,29.84,SSW,202,3.3,5.8,70,0.04,RA,,0.06,WeatherDisplay:10.37,2013-02-23 20:31:00,
2013-02-23 14:37:00,34.2,25.4,29.84,WNW,292,1.3,3.2,70,0.04,RA,,0.06,WeatherDisplay:10.37,2013-02-23 20:37:00,
2013-02-23 14:42:00,36.1,25.5,29.84,West,270,2.9,3.5,65,0.03,SCT,,0.06,WeatherDisplay:10.37,2013-02-23 20:42:00,
2013-02-23 14:47:00,33.8,24.7,29.84,West,270,3.2,3.5,69,0.02,SCT,,0.06,WeatherDisplay:10.37,2013-02-23 20:47:00,
2013-02-23 14:52:00,34.9,25.8,29.84,West,270,3.3,4.6,69,0.02,SCT,,0.06,WeatherDisplay:10.37,2013-02-23 20:52:00,
2013-02-23 14:57:00,35.4,25.5,29.84,West,270,4.4,5.8,67,0.03,RA,,0.07,WeatherDisplay:10.37,2013-02-23 20:57:00,
2013-02-23 15:02:00,34.2,25.4,29.84,SSW,202,2.7,3.2,70,0.03,RA,,0.07,WeatherDisplay:10.37,2013-02-23 21:02:00,
2013-02-23 15:07:00,33.4,24.3,29.84,WSW,248,3.7,4.6,69,0.03,SCT,,0.07,WeatherDisplay:10.37,2013-02-23 21:07:00,
2013-02-23 15:12:00,33.6,24.9,29.83,WNW,292,3.6,5.8,70,0.02,SCT,,0.07,WeatherDisplay:10.37,2013-02-23 21:12:00,
2013-02-23 15:17:00,33.6,24.9,29.83,WSW,248,3.1,3.5,70,0.03,RA,,0.08,WeatherDisplay:10.37,2013-02-23 21:17:00,
2013-02-23 15:22:00,33.8,24.7,29.84,South,180,3.4,4.6,69,0.03,RA,,0.08,WeatherDisplay:10.37,2013-02-23 21:22:00,
2013-02-23 15:28:00,34.3,25.2,29.84,SW,225,4.0,5.8,69,0.03,SCT,,0.08,WeatherDisplay:10.37,2013-02-23 21:28:00,
2013-02-23 15:33:00,33.8,24.7,29.84,WSW,248,3.5,5.3,69,0.02,BKN,,0.08,WeatherDisplay:10.37,2013-02-23 21:33:00,
2013-02-23 15:38:00,33.6,24.9,29.84,West,270,2.6,4.6,70,0.02,BKN,,0.08,WeatherDisplay:10.37,2013-02-23 21:38:00,
2013-02-23 15:43:00,34.5,25.0,29.84,WSW,248,2.8,3.5,68,0.02,BKN,,0.08,WeatherDisplay:10.37,2013-02-23 21:43:00,
2013-02-23 15:48:00,34.9,25.0,29.84,West,270,3.8,4.6,67,0.02,BKN,,0.08,WeatherDisplay:10.37,2013-02-23 21:48:00,
2013-02-23 15:53:00,33.6,24.5,29.84,West,270,4.7,6.9,69,0.02,BKN,,0.08,WeatherDisplay:10.37,2013-02-23 21:53:00,
2013-02-23 15:58:00,33.8,25.0,29.84,WSW,248,4.7,5.8,70,0.01,BKN,,0.08,WeatherDisplay:10.37,2013-02-23 21:58:00,
2013-02-23 16:03:00,33.6,24.9,29.84,West,270,3.6,5.8,70,0.01,BKN,,0.08,WeatherDisplay:10.37,2013-02-23 22:03:00,
2013-02-23 16:08:00,32.7,24.3,29.84,WNW,292,4.7,5.8,71,0.01,BKN,,0.08,WeatherDisplay:10.37,2013-02-23 22:08:00,
2013-02-23 16:13:00,32.5,24.1,29.85,West,270,2.7,3.5,71,0.01,OVC,,0.08,WeatherDisplay:10.37,2013-02-23 22:13:00,
2013-02-23 16:19:00,32.4,24.4,29.85,West,270,3.6,5.8,72,0.00,OVC,,0.08,WeatherDisplay:10.37,2013-02-23 22:19:00,
2013-02-23 16:24:00,32.0,24.0,29.85,WNW,292,4.5,4.7,72,0.00,OVC,,0.08,WeatherDisplay:10.37,2013-02-23 22:24:00,
2013-02-23 16:29:00,31.8,23.8,29.85,WSW,248,3.8,4.6,72,0.00,OVC,,0.08,WeatherDisplay:10.37,2013-02-23 22:29:00,
2013-02-23 16:34:00,31.6,23.6,29.85,WSW,248,3.2,4.6,72,0.00,OVC,,0.08,WeatherDisplay:10.37,2013-02-23 22:34:00,
2013-02-23 16:39:00,31.3,23.6,29.85,West,270,4.8,5.8,73,0.00,OVC,,0.08,WeatherDisplay:10.37,2013-02-23 22:39:00,
2013-02-23 16:44:00,31.5,23.8,29.85,West,270,3.4,4.6,73,0.00,OVC,,0.08,WeatherDisplay:10.37,2013-02-23 22:44:00,
2013-02-23 16:49:00,30.9,23.3,29.85,West,270,4.3,6.3,73,0.00,OVC,,0.08,WeatherDisplay:10.37,2013-02-23 22:49:00,
2013-02-23 16:54:00,30.4,22.8,29.85,WSW,248,5.8,5.8,73,0.00,OVC,,0.08,WeatherDisplay:10.37,2013-02-23 22:54:00,
2013-02-23 16:59:00,29.8,22.2,29.85,SSW,202,4.8,5.8,73,0.00,OVC,,0.08,WeatherDisplay:10.37,2013-02-23 22:59:00,
2013-02-23 17:04:00,29.3,22.0,29.85,SSW,202,4.0,5.8,74,0.00,OVC,,0.08,WeatherDisplay:10.37,2013-02-23 23:04:00,
2013-02-23 17:10:00,29.5,22.2,29.85,SW,225,4.1,4.6,74,0.00,OVC,,0.08,WeatherDisplay:10.37,2013-02-23 23:10:00,
2013-02-23 17:15:00,29.1,21.8,29.85,West,270,3.2,3.5,74,0.00,OVC,,0.08,WeatherDisplay:10.37,2013-02-23 23:15:00,
2013-02-23 17:20:00,28.8,21.6,29.85,SW,225,4.5,5.8,74,0.00,OVC,,0.08,WeatherDisplay:10.37,2013-02-23 23:20:00,
2013-02-23 17:25:00,28.4,21.2,29.86,WSW,248,3.9,4.6,74,0.00,OVC,,0.08,WeatherDisplay:10.37,2013-02-23 23:25:00,
2013-02-23 17:30:00,28.4,21.2,29.86,WSW,248,2.7,4.2,74,0.00,OVC,,0.08,WeatherDisplay:10.37,2013-02-23 23:30:00,
2013-02-23 17:35:00,28.2,21.3,29.86,WSW,248,3.8,4.6,75,0.00,OVC,,0.08,WeatherDisplay:10.37,2013-02-23 23:35:00,
2013-02-23 17:40:00,28.2,21.3,29.86,West,270,3.3,5.8,75,0.00,OVC,,0.08,WeatherDisplay:10.37,2013-02-23 23:40:00,
2013-02-23 17:45:00,28.2,21.3,29.86,WSW,248,2.5,3.5,75,0.00,OVC,,0.08,WeatherDisplay:10.37,2013-02-23 23:45:00,
2013-02-23 17:50:00,28.0,21.1,29.86,West,270,2.1,4.6,75,0.00,OVC,,0.08,WeatherDisplay:10.37,2013-02-23 23:50:00,
2013-02-23 17:55:00,27.7,20.8,29.86,West,270,2.8,4.6,75,0.00,OVC,,0.08,WeatherDisplay:10.37,2013-02-23 23:55:00,
2013-02-23 18:01:00,27.7,20.8,29.87,West,270,0.3,3.2,75,0.00,OVC,,0.08,WeatherDisplay:10.37,2013-02-24 00:01:00,
2013-02-23 18:06:00,27.5,20.9,29.87,West,270,2.3,3.5,76,0.00,OVC,,0.08,WeatherDisplay:10.37,2013-02-24 00:06:00,
2013-02-23 18:11:00,27.1,20.5,29.87,WSW,248,2.9,4.6,76,0.00,OVC,,0.08,WeatherDisplay:10.37,2013-02-24 00:11:00,
2013-02-23 18:16:00,27.1,20.5,29.87,West,270,2.2,2.3,76,0.00,OVC,,0.08,WeatherDisplay:10.37,2013-02-24 00:16:00,
2013-02-23 18:21:00,26.8,20.2,29.88,West,270,3.5,4.6,76,0.00,OVC,,0.08,WeatherDisplay:10.37,2013-02-24 00:21:00,
2013-02-23 18:26:00,26.6,20.1,29.88,South,180,3.9,4.6,76,0.00,OVC,,0.08,WeatherDisplay:10.37,2013-02-24 00:26:00,
2013-02-23 18:31:00,26.2,19.7,29.88,WSW,248,3.6,5.8,76,0.00,OVC,,0.08,WeatherDisplay:10.37,2013-02-24 00:31:00,
2013-02-23 18:36:00,26.1,19.9,29.88,SW,225,2.9,3.5,77,0.00,OVC,,0.08,WeatherDisplay:10.37,2013-02-24 00:36:00,
2013-02-23 18:41:00,25.5,19.3,29.88,WSW,248,1.9,3.5,77,0.00,OVC,,0.08,WeatherDisplay:10.37,2013-02-24 00:41:00,
2013-02-23 18:46:00,25.2,19.0,29.89,SW,225,3.6,5.8,77,0.00,OVC,,0.08,WeatherDisplay:10.37,2013-02-24 00:46:00,
2013-02-23 18:52:00,24.8,18.6,29.89,West,270,2.1,3.5,77,0.00,OVC,,0.08,WeatherDisplay:10.37,2013-02-24 00:52:00,
2013-02-23 18:57:00,24.4,18.2,29.89,WSW,248,2.0,3.5,77,0.00,OVC,,0.08,WeatherDisplay:10.37,2013-02-24 00:57:00,
2013-02-23 19:02:00,24.1,18.2,29.89,West,270,2.2,2.3,78,0.00,OVC,,0.08,WeatherDisplay:10.37,2013-02-24 01:02:00,
2013-02-23 19:07:00,23.7,17.8,29.89,WSW,248,1.7,2.7,78,0.00,OVC,,0.08,WeatherDisplay:10.37,2013-02-24 01:07:00,
2013-02-23 19:12:00,23.7,17.8,29.89,West,270,4.1,5.8,78,0.00,OVC,,0.08,WeatherDisplay:10.37,2013-02-24 01:12:00,
2013-02-23 19:17:00,23.2,17.4,29.89,SW,225,0.0,0.0,78,0.00,OVC,,0.08,WeatherDisplay:10.37,2013-02-24 01:17:00,
2013-02-23 19:22:00,22.6,16.8,29.90,SSW,202,4.6,5.8,78,0.00,OVC,,0.08,WeatherDisplay:10.37,2013-02-24 01:22:00,
2013-02-23 19:27:00,22.5,16.7,29.90,West,270,0.2,2.3,78,0.00,OVC,,0.08,WeatherDisplay:10.37,2013-02-24 01:27:00,
2013-02-23 19:32:00,22.3,16.5,29.90,WSW,248,2.2,3.5,78,0.00,OVC,,0.08,WeatherDisplay:10.37,2013-02-24 01:32:00,
2013-02-23 19:37:00,21.9,16.1,29.90,West,270,0.0,1.1,78,0.00,OVC,,0.08,WeatherDisplay:10.37,2013-02-24 01:37:00,
2013-02-23 19:43:00,21.6,16.1,29.90,SW,225,0.0,0.0,79,0.00,OVC,,0.08,WeatherDisplay:10.37,2013-02-24 01:43:00,
2013-02-23 19:48:00,21.2,16.0,29.90,SSW,202,0.0,0.0,80,0.00,OVC,,0.08,WeatherDisplay:10.37,2013-02-24 01:48:00,
2013-02-23 19:53:00,20.7,15.8,29.90,SSW,202,0.0,0.0,81,0.00,OVC,,0.08,WeatherDisplay:10.37,2013-02-24 01:53:00,
2013-02-23 19:58:00,20.5,15.6,29.90,SSW,202,0.0,0.0,81,0.00,OVC,,0.08,WeatherDisplay:10.37,2013-02-24 01:58:00,
2013-02-23 20:03:00,20.3,15.7,29.90,SSW,202,0.0,0.0,82,0.00,OVC,,0.08,WeatherDisplay:10.37,2013-02-24 02:03:00,
2013-02-23 20:08:00,20.3,15.7,29.90,SW,225,0.0,0.0,82,0.00,OVC,,0.08,WeatherDisplay:10.37,2013-02-24 02:08:00,
2013-02-23 20:13:00,20.1,15.8,29.91,South,180,0.0,0.0,83,0.00,OVC,,0.08,WeatherDisplay:10.37,2013-02-24 02:13:00,
2013-02-23 20:18:00,20.1,15.8,29.91,SSW,202,0.0,0.0,83,0.00,OVC,,0.08,WeatherDisplay:10.37,2013-02-24 02:18:00,
2013-02-23 20:23:00,20.1,15.8,29.91,SSW,202,0.0,0.0,83,0.00,OVC,,0.08,WeatherDisplay:10.37,2013-02-24 02:23:00,
2013-02-23 20:28:00,20.1,15.8,29.91,SSW,202,0.0,0.0,83,0.00,OVC,,0.08,WeatherDisplay:10.37,2013-02-24 02:28:00,
2013-02-23 20:34:00,20.3,16.0,29.91,SW,225,0.0,0.0,83,0.00,OVC,,0.08,WeatherDisplay:10.37,2013-02-24 02:34:00,
2013-02-23 20:39:00,20.1,15.8,29.91,SSW,202,0.0,0.0,83,0.00,OVC,,0.08,WeatherDisplay:10.37,2013-02-24 02:39:00,
2013-02-23 20:44:00,20.1,15.8,29.91,SW,225,0.0,0.0,83,0.00,OVC,,0.08,WeatherDisplay:10.37,2013-02-24 02:44:00,
2013-02-23 20:49:00,20.1,15.8,29.91,SW,225,0.0,0.0,83,0.00,OVC,,0.08,WeatherDisplay:10.37,2013-02-24 02:49:00,
2013-02-23 20:54:00,20.1,15.8,29.91,WSW,248,3.1,3.5,83,0.00,OVC,,0.08,WeatherDisplay:10.37,2013-02-24 02:54:00,
2013-02-23 20:59:00,20.5,15.9,29.91,SW,225,2.7,3.5,82,0.00,OVC,,0.08,WeatherDisplay:10.37,2013-02-24 02:59:00,
2013-02-23 21:04:00,20.5,15.9,29.91,SSW,202,0.0,0.0,82,0.00,OVC,,0.08,WeatherDisplay:10.37,2013-02-24 03:04:00,
2013-02-23 21:09:00,20.5,15.9,29.91,South,180,0.0,0.0,82,0.00,OVC,,0.08,WeatherDisplay:10.37,2013-02-24 03:09:00,
2013-02-23 21:14:00,20.3,15.7,29.91,SSW,202,0.0,0.0,82,0.00,OVC,,0.08,WeatherDisplay:10.37,2013-02-24 03:14:00,
2013-02-23 21:19:00,20.3,15.7,29.91,WSW,248,0.0,0.0,82,0.00,OVC,,0.08,WeatherDisplay:10.37,2013-02-24 03:19:00,
2013-02-23 21:25:00,20.3,15.7,29.91,South,180,0.0,0.0,82,0.00,OVC,,0.08,WeatherDisplay:10.37,2013-02-24 03:25:00,
2013-02-23 21:30:00,20.3,15.7,29.91,SSW,202,0.0,0.0,82,0.00,OVC,,0.08,WeatherDisplay:10.37,2013-02-24 03:30:00,
2013-02-23 21:35:00,20.3,15.7,29.92,WSW,248,0.0,0.0,82,0.00,OVC,,0.08,WeatherDisplay:10.37,2013-02-24 03:35:00,
2013-02-23 21:40:00,20.3,15.7,29.92,SW,225,0.0,0.0,82,0.00,OVC,,0.08,WeatherDisplay:10.37,2013-02-24 03:40:00,
2013-02-23 21:45:00,20.3,15.7,29.92,SW,225,0.0,0.0,82,0.00,OVC,,0.08,WeatherDisplay:10.37,2013-02-24 03:45:00,
2013-02-23 21:50:00,20.3,15.7,29.92,South,180,0.0,0.0,82,0.00,OVC,,0.08,WeatherDisplay:10.37,2013-02-24 03:50:00,
2013-02-23 21:55:00,20.3,15.7,29.92,South,180,0.0,0.0,82,0.00,OVC,,0.08,WeatherDisplay:10.37,2013-02-24 03:55:00,
2013-02-23 22:00:00,20.3,15.7,29.92,NNE,22,0.0,0.0,82,0.00,OVC,,0.08,WeatherDisplay:10.37,2013-02-24 04:00:00,
2013-02-23 22:05:00,20.3,15.7,29.92,NNE,22,0.0,0.0,82,0.00,OVC,,0.08,WeatherDisplay:10.37,2013-02-24 04:05:00,
2013-02-23 22:10:00,20.3,15.7,29.92,NNE,22,0.0,0.0,82,0.00,OVC,,0.08,WeatherDisplay:10.37,2013-02-24 04:10:00,
2013-02-23 22:16:00,20.3,15.7,29.92,NNE,22,2.4,2.4,82,0.00,OVC,,0.08,WeatherDisplay:10.37,2013-02-24 04:16:00,
2013-02-23 22:21:00,20.3,15.7,29.93,NNE,22,3.0,3.5,82,0.00,OVC,,0.08,WeatherDisplay:10.37,2013-02-24 04:21:00,
2013-02-23 22:26:00,20.3,15.7,29.93,NNE,22,0.0,0.0,82,0.00,OVC,,0.08,WeatherDisplay:10.37,2013-02-24 04:26:00,
2013-02-23 22:31:00,20.3,15.7,29.93,NNE,22,0.0,0.0,82,0.00,OVC,,0.08,WeatherDisplay:10.37,2013-02-24 04:31:00,
2013-02-23 22:36:00,20.3,15.7,29.93,NNE,22,0.0,0.0,82,0.00,OVC,,0.08,WeatherDisplay:10.37,2013-02-24 04:36:00,
2013-02-23 22:41:00,20.3,15.7,29.93,NNE,22,0.0,0.0,82,0.00,OVC,,0.08,WeatherDisplay:10.37,2013-02-24 04:41:00,
2013-02-23 22:46:00,20.3,15.7,29.93,NNE,22,0.0,0.0,82,0.00,OVC,,0.08,WeatherDisplay:10.37,2013-02-24 04:46:00,
2013-02-23 22:51:00,20.3,15.7,29.93,NNE,22,0.0,0.0,82,0.00,OVC,,0.08,WeatherDisplay:10.37,2013-02-24 04:51:00,
2013-02-23 22:56:00,20.3,15.7,29.93,NNE,22,0.0,0.0,82,0.00,OVC,,0.08,WeatherDisplay:10.37,2013-02-24 04:56:00,
2013-02-23 23:00:00,20.3,15.7,29.93,NNE,22,0.0,0.0,82,0.00,OVC,,0.08,WeatherDisplay:10.37,2013-02-24 05:00:00,
2013-02-23 23:02:00,20.3,15.7,29.93,NNE,22,0.0,0.0,82,0.00,OVC,,0.08,WeatherDisplay:10.37,2013-02-24 05:02:00,
2013-02-23 23:03:00,20.3,15.7,29.93,NNE,22,0.0,0.0,82,0.00,OVC,,0.08,WeatherDisplay:10.37,2013-02-24 05:03:00,
2013-02-23 23:08:00,20.3,15.7,29.93,NNE,22,0.0,0.0,82,0.00,OVC,,0.08,WeatherDisplay:10.37,2013-02-24 05:08:00,
2013-02-23 23:13:00,20.3,15.7,29.93,NNE,22,0.0,0.0,82,0.00,OVC,,0.08,WeatherDisplay:10.37,2013-02-24 05:13:00,
2013-02-23 23:18:00,20.3,15.7,29.93,NNE,22,0.0,0.0,82,0.00,OVC,,0.08,WeatherDisplay:10.37,2013-02-24 05:18:00,
2013-02-23 23:23:00,20.3,15.7,29.93,NNE,22,0.0,0.0,82,0.00,OVC,,0.08,WeatherDisplay:10.37,2013-02-24 05:23:00,
2013-02-23 23:29:00,20.3,15.7,29.93,NNE,22,0.0,0.0,82,0.00,OVC,,0.08,WeatherDisplay:10.37,2013-02-24 05:29:00,
2013-02-23 23:34:00,20.3,15.7,29.93,NNE,22,0.0,0.0,82,0.00,OVC,,0.08,WeatherDisplay:10.37,2013-02-24 05:34:00,
2013-02-23 23:39:00,20.3,15.7,29.93,NNE,22,0.0,0.0,82,0.00,OVC,,0.08,WeatherDisplay:10.37,2013-02-24 05:39:00,
2013-02-23 23:44:00,20.3,15.7,29.93,NNE,22,0.0,0.0,82,0.00,OVC,,0.08,WeatherDisplay:10.37,2013-02-24 05:44:00,
2013-02-23 23:49:00,20.3,15.7,29.93,NNE,22,0.0,0.0,82,0.00,OVC,,0.08,WeatherDisplay:10.37,2013-02-24 05:49:00,
2013-02-23 23:54:00,20.3,15.7,29.93,NNE,22,0.0,0.0,82,0.00,OVC,,0.08,WeatherDisplay:10.37,2013-02-24 05:54:00,
2013-02-23 23:59:00,20.3,15.7,29.93,NNE,22,0.0,0.0,82,0.00,OVC,,0.08,WeatherDisplay:10.37,2013-02-24 05:59:00,